TimeCDT,TemperatureF,Dew PointF,Humidity,Sea Level PressureIn,VisibilityMPH,Wind Direction,Wind SpeedMPH,Gust SpeedMPH,PrecipitationIn,Events,Conditions,WindDirDegrees,DateUTC
12:10 AM,39.2,26.6,61,30.22,10.0,NE,12.7,-,N/A,,Overcast,50,2013-04-02 05:10:00
12:30 AM,39.2,26.6,61,30.21,10.0,NE,13.8,18.4,N/A,,Overcast,50,2013-04-02 05:30:00
12:50 AM,39.2,26.6,61,30.21,10.0,NE,13.8,18.4,N/A,,Overcast,50,2013-04-02 05:50:00
1:10 AM,39.2,26.6,61,30.21,10.0,NE,15.0,-,N/A,,Overcast,50,2013-04-02 06:10:00
1:30 AM,39.2,26.6,61,30.22,10.0,ENE,12.7,21.9,N/A,,Overcast,60,2013-04-02 06:30:00
1:50 AM,39.2,26.6,61,30.21,10.0,NE,13.8,-,N/A,,Overcast,50,2013-04-02 06:50:00
2:10 AM,39.2,26.6,61,30.21,10.0,ENE,16.1,-,N/A,,Overcast,60,2013-04-02 07:10:00
2:30 AM,39.2,24.8,56,30.21,10.0,NE,13.8,-,N/A,,Overcast,50,2013-04-02 07:30:00
2:50 AM,39.2,26.6,61,30.21,10.0,NE,16.1,-,N/A,,Overcast,50,2013-04-02 07:50:00
3:10 AM,37.4,28.4,70,30.21,9.0,NE,12.7,-,N/A,Rain,Light Rain,40,2013-04-02 08:10:00
3:30 AM,37.4,30.2,75,30.19,10.0,NE,15.0,-,N/A,Rain,Light Rain,50,2013-04-02 08:30:00
3:50 AM,37.4,28.4,70,30.20,10.0,NE,16.1,-,N/A,Rain-Thunderstorm,Light Rain,50,2013-04-02 08:50:00
4:10 AM,37.4,28.4,70,30.20,9.0,ENE,15.0,19.6,N/A,Rain-Thunderstorm,Light Rain,60,2013-04-02 09:10:00
4:30 AM,37.4,28.4,70,30.21,10.0,NE,16.1,21.9,N/A,,Overcast,50,2013-04-02 09:30:00
4:50 AM,37.4,28.4,70,30.20,10.0,ENE,13.8,-,N/A,Thunderstorm,Thunderstorm,60,2013-04-02 09:50:00
5:10 AM,37.4,28.4,70,30.24,10.0,ENE,11.5,-,N/A,,Overcast,60,2013-04-02 10:10:00
5:30 AM,35.6,30.2,81,30.22,9.0,ENE,13.8,17.3,N/A,Rain,Light Rain,60,2013-04-02 10:30:00
5:50 AM,35.6,32.0,87,30.22,8.0,ENE,11.5,-,0.01,Rain,Light Rain,70,2013-04-02 10:50:00
6:10 AM,35.6,32.0,87,30.23,10.0,ENE,12.7,-,N/A,,Overcast,70,2013-04-02 11:10:00
6:30 AM,35.6,32.0,87,30.22,10.0,NE,13.8,20.7,N/A,Rain,Light Rain,50,2013-04-02 11:30:00
6:50 AM,33.8,32.0,93,30.22,9.0,ENE,16.1,20.7,N/A,,Overcast,70,2013-04-02 11:50:00
7:10 AM,33.8,32.0,93,30.22,10.0,ENE,15.0,-,N/A,,Overcast,70,2013-04-02 12:10:00
7:30 AM,33.8,32.0,93,30.22,8.0,NE,13.8,-,N/A,,Overcast,50,2013-04-02 12:30:00
7:50 AM,32.0,32.0,100,30.22,5.0,NE,13.8,17.3,N/A,Rain,Light Rain,50,2013-04-02 12:50:00
8:10 AM,32.0,32.0,100,30.23,5.0,NE,15.0,-,N/A,Rain,Light Rain,50,2013-04-02 13:10:00
8:30 AM,32.0,32.0,100,30.24,7.0,NE,12.7,-,N/A,Rain,Light Rain,50,2013-04-02 13:30:00
8:50 AM,32.0,32.0,100,30.24,4.0,East,10.4,-,N/A,Rain,Light Rain,80,2013-04-02 13:50:00
9:10 AM,33.8,32.0,93,30.25,1.5,ENE,13.8,-,N/A,Rain,Light Rain,60,2013-04-02 14:10:00
9:30 AM,32.0,32.0,100,30.24,2.5,ENE,12.7,-,N/A,Rain,Light Rain,60,2013-04-02 14:30:00
9:50 AM,32.0,32.0,100,30.24,2.5,ENE,13.8,-,0.01,Rain,Light Rain,60,2013-04-02 14:50:00
10:10 AM,32.0,32.0,100,30.25,2.0,ENE,12.7,-,N/A,Rain,Light Rain,60,2013-04-02 15:10:00
10:30 AM,32.0,32.0,100,30.25,2.5,ENE,9.2,-,0.01,Rain,Light Rain,60,2013-04-02 15:30:00
10:50 AM,33.8,33.8,100,30.25,2.5,NE,12.7,-,0.01,Rain,Light Rain,50,2013-04-02 15:50:00
11:10 AM,32.0,32.0,100,30.25,2.0,NE,13.8,-,N/A,Rain,Light Rain,50,2013-04-02 16:10:00
11:30 AM,32.0,32.0,100,30.26,1.8,ENE,15.0,20.7,0.01,Rain,Light Rain,60,2013-04-02 16:30:00
11:50 AM,33.8,33.8,100,30.26,2.0,NE,15.0,-,0.01,Rain,Light Rain,50,2013-04-02 16:50:00
12:10 PM,33.8,33.8,100,30.26,2.5,ENE,16.1,-,N/A,Rain,Light Rain,60,2013-04-02 17:10:00
12:30 PM,33.8,33.8,100,30.26,1.8,NE,11.5,-,0.01,Rain,Light Rain,50,2013-04-02 17:30:00
12:50 PM,33.8,33.8,100,30.25,2.5,NE,15.0,-,0.01,Rain,Light Rain,50,2013-04-02 17:50:00
1:10 PM,33.8,33.8,100,30.25,1.2,NE,13.8,-,0.02,Rain-Thunderstorm,Light Rain,50,2013-04-02 18:10:00
1:30 PM,33.8,33.8,100,30.25,2.5,NE,12.7,-,0.03,Rain,Light Rain,40,2013-04-02 18:30:00
1:50 PM,35.6,35.6,100,30.24,5.0,NE,12.7,-,0.03,,Overcast,50,2013-04-02 18:50:00
2:10 PM,35.6,35.6,100,30.23,7.0,NE,13.8,-,N/A,,Overcast,50,2013-04-02 19:10:00
2:30 PM,35.6,35.6,100,30.22,5.0,NE,15.0,19.6,N/A,,Overcast,50,2013-04-02 19:30:00
2:50 PM,35.6,33.8,93,30.22,8.0,ENE,16.1,21.9,N/A,,Overcast,60,2013-04-02 19:50:00
3:10 PM,35.6,32.0,87,30.22,7.0,NE,12.7,-,N/A,,Overcast,50,2013-04-02 20:10:00
3:30 PM,35.6,32.0,87,30.22,10.0,ENE,12.7,-,N/A,,Overcast,60,2013-04-02 20:30:00
3:50 PM,35.6,32.0,87,30.21,9.0,ENE,13.8,-,N/A,,Overcast,70,2013-04-02 20:50:00
4:10 PM,35.6,35.6,100,30.21,4.0,NE,11.5,-,N/A,,Overcast,40,2013-04-02 21:10:00
4:30 PM,35.6,32.0,87,30.21,9.0,ENE,11.5,-,N/A,,Overcast,60,2013-04-02 21:30:00
4:50 PM,37.4,32.0,81,30.21,10.0,ENE,13.8,-,N/A,,Overcast,60,2013-04-02 21:50:00
5:10 PM,37.4,30.2,75,30.20,10.0,ENE,13.8,-,N/A,,Overcast,60,2013-04-02 22:10:00
5:30 PM,37.4,32.0,81,30.21,10.0,ENE,13.8,-,N/A,,Overcast,70,2013-04-02 22:30:00
5:50 PM,37.4,32.0,81,30.21,10.0,ENE,12.7,19.6,N/A,,Overcast,60,2013-04-02 22:50:00
6:10 PM,37.4,32.0,81,30.20,10.0,ENE,11.5,-,N/A,,Overcast,60,2013-04-02 23:10:00
6:30 PM,37.4,32.0,81,30.20,10.0,ENE,11.5,-,N/A,,Overcast,60,2013-04-02 23:30:00
6:50 PM,37.4,32.0,81,30.20,10.0,ENE,13.8,-,N/A,,Overcast,60,2013-04-02 23:50:00
7:10 PM,37.4,32.0,81,30.20,10.0,NE,12.7,-,N/A,,Overcast,50,2013-04-03 00:10:00
7:30 PM,37.4,32.0,81,30.19,10.0,NE,12.7,-,N/A,,Overcast,40,2013-04-03 00:30:00
7:50 PM,37.4,32.0,81,30.19,10.0,NE,11.5,-,N/A,,Overcast,50,2013-04-03 00:50:00
8:10 PM,37.4,30.2,75,30.19,10.0,NE,13.8,-,N/A,,Overcast,40,2013-04-03 01:10:00
8:30 PM,37.4,30.2,75,30.20,10.0,NE,11.5,-,N/A,,Overcast,50,2013-04-03 01:30:00
8:50 PM,37.4,32.0,81,30.19,10.0,NE,10.4,-,N/A,,Overcast,50,2013-04-03 01:50:00
9:10 PM,37.4,32.0,81,30.20,10.0,NE,9.2,-,N/A,,Overcast,40,2013-04-03 02:10:00
9:30 PM,37.4,32.0,81,30.21,10.0,NE,9.2,-,N/A,,Overcast,40,2013-04-03 02:30:00
9:50 PM,37.4,32.0,81,30.21,10.0,NE,9.2,-,N/A,,Overcast,40,2013-04-03 02:50:00
10:10 PM,37.4,32.0,81,30.24,10.0,ENE,6.9,-,N/A,,Overcast,60,2013-04-03 03:10:00
10:30 PM,37.4,32.0,81,30.24,10.0,NE,6.9,-,N/A,,Overcast,50,2013-04-03 03:30:00
10:50 PM,37.4,32.0,81,30.23,10.0,NE,8.1,-,N/A,,Overcast,50,2013-04-03 03:50:00
11:30 PM,37.4,32.0,81,30.21,10.0,NE,12.7,-,N/A,,Overcast,40,2013-04-03 04:30:00
11:50 PM,37.4,32.0,81,30.22,10.0,NE,8.1,-,N/A,,Overcast,40,2013-04-03 04:50:00